sensor_id;sensor_type;location;lat;lon;timestamp;temperature;humidity
52656;SHT85;35474;51.032;6.998;2023-09-18T00:00:34;20.97;81.93
52656;SHT85;35474;51.032;6.998;2023-09-18T00:03:01;20.99;82.01
52656;SHT85;35474;51.032;6.998;2023-09-18T00:05:29;21.20;81.36
52656;SHT85;35474;51.032;6.998;2023-09-18T00:07:57;20.97;82.04
52656;SHT85;35474;51.032;6.998;2023-09-18T00:10:25;21.02;81.70
52656;SHT85;35474;51.032;6.998;2023-09-18T00:12:52;20.92;82.10
52656;SHT85;35474;51.032;6.998;2023-09-18T00:15:18;20.86;82.42
52656;SHT85;35474;51.032;6.998;2023-09-18T00:17:45;20.82;82.54
52656;SHT85;35474;51.032;6.998;2023-09-18T00:20:12;20.92;82.20
52656;SHT85;35474;51.032;6.998;2023-09-18T00:22:39;20.89;82.20
52656;SHT85;35474;51.032;6.998;2023-09-18T00:25:06;21.02;81.53
52656;SHT85;35474;51.032;6.998;2023-09-18T00:27:33;21.13;80.85
52656;SHT85;35474;51.032;6.998;2023-09-18T00:30:05;21.06;80.82
52656;SHT85;35474;51.032;6.998;2023-09-18T00:32:33;20.89;81.65
52656;SHT85;35474;51.032;6.998;2023-09-18T00:35:00;20.89;81.73
52656;SHT85;35474;51.032;6.998;2023-09-18T00:37:28;20.79;82.02
52656;SHT85;35474;51.032;6.998;2023-09-18T00:39:55;20.82;82.18
52656;SHT85;35474;51.032;6.998;2023-09-18T00:42:21;20.71;82.56
52656;SHT85;35474;51.032;6.998;2023-09-18T00:44:49;20.65;82.60
52656;SHT85;35474;51.032;6.998;2023-09-18T00:47:17;20.71;82.39
52656;SHT85;35474;51.032;6.998;2023-09-18T00:49:45;20.66;82.37
52656;SHT85;35474;51.032;6.998;2023-09-18T00:52:15;20.62;82.51
52656;SHT85;35474;51.032;6.998;2023-09-18T00:54:43;20.62;82.55
52656;SHT85;35474;51.032;6.998;2023-09-18T00:57:11;20.65;82.67
52656;SHT85;35474;51.032;6.998;2023-09-18T00:59:38;20.58;82.87
52656;SHT85;35474;51.032;6.998;2023-09-18T01:02:05;20.58;82.77
52656;SHT85;35474;51.032;6.998;2023-09-18T01:04:32;20.56;82.97
52656;SHT85;35474;51.032;6.998;2023-09-18T01:07:00;20.53;83.00
52656;SHT85;35474;51.032;6.998;2023-09-18T01:09:30;20.45;83.20
52656;SHT85;35474;51.032;6.998;2023-09-18T01:14:50;20.29;83.72
52656;SHT85;35474;51.032;6.998;2023-09-18T01:17:35;20.29;83.86
52656;SHT85;35474;51.032;6.998;2023-09-18T01:20:04;20.29;83.80
52656;SHT85;35474;51.032;6.998;2023-09-18T01:22:32;20.28;83.89
52656;SHT85;35474;51.032;6.998;2023-09-18T01:24:58;20.22;84.00
52656;SHT85;35474;51.032;6.998;2023-09-18T01:27:25;20.21;84.11
52656;SHT85;35474;51.032;6.998;2023-09-18T01:29:51;20.21;84.16
52656;SHT85;35474;51.032;6.998;2023-09-18T01:32:19;20.22;84.02
52656;SHT85;35474;51.032;6.998;2023-09-18T01:34:52;20.15;84.06
52656;SHT85;35474;51.032;6.998;2023-09-18T01:37:21;20.14;84.24
52656;SHT85;35474;51.032;6.998;2023-09-18T01:39:51;20.17;84.24
52656;SHT85;35474;51.032;6.998;2023-09-18T01:42:19;20.25;83.87
52656;SHT85;35474;51.032;6.998;2023-09-18T01:44:47;20.28;83.51
52656;SHT85;35474;51.032;6.998;2023-09-18T01:47:16;20.34;83.27
52656;SHT85;35474;51.032;6.998;2023-09-18T01:49:45;20.26;83.00
52656;SHT85;35474;51.032;6.998;2023-09-18T01:52:12;20.29;82.78
52656;SHT85;35474;51.032;6.998;2023-09-18T01:54:39;20.32;82.46
52656;SHT85;35474;51.032;6.998;2023-09-18T01:57:06;20.38;82.08
52656;SHT85;35474;51.032;6.998;2023-09-18T01:59:34;20.51;81.42
52656;SHT85;35474;51.032;6.998;2023-09-18T02:02:02;20.53;81.03
52656;SHT85;35474;51.032;6.998;2023-09-18T02:04:32;20.66;80.40
52656;SHT85;35474;51.032;6.998;2023-09-18T02:07:19;20.79;79.66
52656;SHT85;35474;51.032;6.998;2023-09-18T02:09:46;20.87;79.11
52656;SHT85;35474;51.032;6.998;2023-09-18T02:12:12;20.99;78.63
52656;SHT85;35474;51.032;6.998;2023-09-18T02:14:44;21.06;78.17
52656;SHT85;35474;51.032;6.998;2023-09-18T02:17:11;21.16;77.69
52656;SHT85;35474;51.032;6.998;2023-09-18T02:19:38;21.27;77.22
52656;SHT85;35474;51.032;6.998;2023-09-18T02:22:04;21.35;76.80
52656;SHT85;35474;51.032;6.998;2023-09-18T02:24:31;21.37;76.74
52656;SHT85;35474;51.032;6.998;2023-09-18T02:26:58;21.45;76.35
52656;SHT85;35474;51.032;6.998;2023-09-18T02:29:24;21.58;75.82
52656;SHT85;35474;51.032;6.998;2023-09-18T02:31:51;21.57;76.07
52656;SHT85;35474;51.032;6.998;2023-09-18T02:34:18;21.51;76.33
52656;SHT85;35474;51.032;6.998;2023-09-18T02:36:45;21.41;76.59
52656;SHT85;35474;51.032;6.998;2023-09-18T02:39:12;21.37;76.87
52656;SHT85;35474;51.032;6.998;2023-09-18T02:41:39;21.35;77.04
52656;SHT85;35474;51.032;6.998;2023-09-18T02:44:05;21.23;77.36
52656;SHT85;35474;51.032;6.998;2023-09-18T02:46:32;21.02;78.62
52656;SHT85;35474;51.032;6.998;2023-09-18T02:48:59;20.93;79.19
52656;SHT85;35474;51.032;6.998;2023-09-18T02:51:26;20.77;79.58
52656;SHT85;35474;51.032;6.998;2023-09-18T02:53:53;20.73;80.05
52656;SHT85;35474;51.032;6.998;2023-09-18T02:56:19;20.75;80.08
52656;SHT85;35474;51.032;6.998;2023-09-18T02:58:46;20.69;80.60
52656;SHT85;35474;51.032;6.998;2023-09-18T03:01:13;20.69;81.11
52656;SHT85;35474;51.032;6.998;2023-09-18T03:03:39;20.77;80.64
52656;SHT85;35474;51.032;6.998;2023-09-18T03:06:08;20.84;80.54
52656;SHT85;35474;51.032;6.998;2023-09-18T03:08:35;20.89;80.51
52656;SHT85;35474;51.032;6.998;2023-09-18T03:11:01;20.89;80.48
52656;SHT85;35474;51.032;6.998;2023-09-18T03:13:30;20.76;81.00
52656;SHT85;35474;51.032;6.998;2023-09-18T03:15:57;20.80;81.17
52656;SHT85;35474;51.032;6.998;2023-09-18T03:18:24;20.79;81.11
52656;SHT85;35474;51.032;6.998;2023-09-18T03:20:50;20.86;81.06
52656;SHT85;35474;51.032;6.998;2023-09-18T03:23:17;20.79;81.32
52656;SHT85;35474;51.032;6.998;2023-09-18T03:25:44;20.59;81.94
52656;SHT85;35474;51.032;6.998;2023-09-18T03:28:17;20.53;82.21
52656;SHT85;35474;51.032;6.998;2023-09-18T03:30:44;20.53;83.01
52656;SHT85;35474;51.032;6.998;2023-09-18T03:33:11;20.63;82.88
52656;SHT85;35474;51.032;6.998;2023-09-18T03:35:45;20.65;83.00
52656;SHT85;35474;51.032;6.998;2023-09-18T03:38:13;20.65;83.09
52656;SHT85;35474;51.032;6.998;2023-09-18T03:40:40;20.55;83.45
52656;SHT85;35474;51.032;6.998;2023-09-18T03:43:07;20.52;83.73
52656;SHT85;35474;51.032;6.998;2023-09-18T03:45:35;20.52;83.87
52656;SHT85;35474;51.032;6.998;2023-09-18T03:48:02;20.51;83.94
52656;SHT85;35474;51.032;6.998;2023-09-18T03:50:29;20.52;83.77
52656;SHT85;35474;51.032;6.998;2023-09-18T03:52:56;20.56;83.73
52656;SHT85;35474;51.032;6.998;2023-09-18T03:55:22;20.56;83.91
52656;SHT85;35474;51.032;6.998;2023-09-18T03:57:49;20.55;84.13
52656;SHT85;35474;51.032;6.998;2023-09-18T04:00:16;20.59;84.04
52656;SHT85;35474;51.032;6.998;2023-09-18T04:02:43;20.62;83.91
52656;SHT85;35474;51.032;6.998;2023-09-18T04:05:09;20.71;83.77
52656;SHT85;35474;51.032;6.998;2023-09-18T04:07:36;20.65;83.92
52656;SHT85;35474;51.032;6.998;2023-09-18T04:10:02;20.75;83.85
52656;SHT85;35474;51.032;6.998;2023-09-18T04:12:30;20.66;84.16
52656;SHT85;35474;51.032;6.998;2023-09-18T04:14:56;20.66;84.22
52656;SHT85;35474;51.032;6.998;2023-09-18T04:17:23;20.63;84.48
52656;SHT85;35474;51.032;6.998;2023-09-18T04:19:50;20.61;84.62
52656;SHT85;35474;51.032;6.998;2023-09-18T04:22:16;20.62;84.65
52656;SHT85;35474;51.032;6.998;2023-09-18T04:24:43;20.59;84.75
52656;SHT85;35474;51.032;6.998;2023-09-18T04:27:10;20.51;84.96
52656;SHT85;35474;51.032;6.998;2023-09-18T04:29:36;20.49;85.01
52656;SHT85;35474;51.032;6.998;2023-09-18T04:32:03;20.51;85.03
52656;SHT85;35474;51.032;6.998;2023-09-18T04:34:30;20.53;84.86
52656;SHT85;35474;51.032;6.998;2023-09-18T04:36:57;20.52;84.92
52656;SHT85;35474;51.032;6.998;2023-09-18T04:39:24;20.49;85.13
52656;SHT85;35474;51.032;6.998;2023-09-18T04:41:50;20.48;85.13
52656;SHT85;35474;51.032;6.998;2023-09-18T04:44:17;20.36;85.55
52656;SHT85;35474;51.032;6.998;2023-09-18T04:46:44;20.35;85.62
52656;SHT85;35474;51.032;6.998;2023-09-18T04:49:10;20.32;85.75
52656;SHT85;35474;51.032;6.998;2023-09-18T04:51:40;20.31;85.57
52656;SHT85;35474;51.032;6.998;2023-09-18T04:54:07;20.36;85.24
52656;SHT85;35474;51.032;6.998;2023-09-18T04:56:34;20.32;85.38
52656;SHT85;35474;51.032;6.998;2023-09-18T04:59:01;20.34;85.27
52656;SHT85;35474;51.032;6.998;2023-09-18T05:01:27;20.36;85.32
52656;SHT85;35474;51.032;6.998;2023-09-18T05:03:56;20.35;85.07
52656;SHT85;35474;51.032;6.998;2023-09-18T05:06:23;20.35;85.07
52656;SHT85;35474;51.032;6.998;2023-09-18T05:08:50;20.29;85.20
52656;SHT85;35474;51.032;6.998;2023-09-18T05:11:18;20.29;84.94
52656;SHT85;35474;51.032;6.998;2023-09-18T05:13:45;20.31;85.16
52656;SHT85;35474;51.032;6.998;2023-09-18T05:16:12;20.29;85.09
52656;SHT85;35474;51.032;6.998;2023-09-18T05:18:39;20.28;84.93
52656;SHT85;35474;51.032;6.998;2023-09-18T05:21:09;20.31;84.82
52656;SHT85;35474;51.032;6.998;2023-09-18T05:23:36;20.26;85.03
52656;SHT85;35474;51.032;6.998;2023-09-18T05:26:03;20.25;84.92
52656;SHT85;35474;51.032;6.998;2023-09-18T05:28:29;20.24;85.01
52656;SHT85;35474;51.032;6.998;2023-09-18T05:30:56;20.25;84.94
52656;SHT85;35474;51.032;6.998;2023-09-18T05:33:23;20.24;84.96
52656;SHT85;35474;51.032;6.998;2023-09-18T05:35:49;20.22;85.00
52656;SHT85;35474;51.032;6.998;2023-09-18T05:38:17;20.24;85.10
52656;SHT85;35474;51.032;6.998;2023-09-18T05:40:44;20.24;85.08
52656;SHT85;35474;51.032;6.998;2023-09-18T05:43:11;20.18;85.25
52656;SHT85;35474;51.032;6.998;2023-09-18T05:45:38;20.18;85.10
52656;SHT85;35474;51.032;6.998;2023-09-18T05:48:05;20.15;85.25
52656;SHT85;35474;51.032;6.998;2023-09-18T05:50:33;20.15;85.28
52656;SHT85;35474;51.032;6.998;2023-09-18T05:53:02;20.18;85.24
52656;SHT85;35474;51.032;6.998;2023-09-18T05:55:35;20.17;85.24
52656;SHT85;35474;51.032;6.998;2023-09-18T05:58:02;20.20;85.07
52656;SHT85;35474;51.032;6.998;2023-09-18T06:00:31;20.17;85.02
52656;SHT85;35474;51.032;6.998;2023-09-18T06:02:58;20.15;85.10
52656;SHT85;35474;51.032;6.998;2023-09-18T06:05:25;20.21;84.89
52656;SHT85;35474;51.032;6.998;2023-09-18T06:07:52;20.22;84.71
52656;SHT85;35474;51.032;6.998;2023-09-18T06:10:19;20.24;84.56
52656;SHT85;35474;51.032;6.998;2023-09-18T06:12:46;20.25;84.60
52656;SHT85;35474;51.032;6.998;2023-09-18T06:15:12;20.34;84.15
52656;SHT85;35474;51.032;6.998;2023-09-18T06:17:39;20.35;83.93
52656;SHT85;35474;51.032;6.998;2023-09-18T06:20:08;20.38;83.79
52656;SHT85;35474;51.032;6.998;2023-09-18T06:22:42;20.42;83.42
52656;SHT85;35474;51.032;6.998;2023-09-18T06:25:09;20.44;83.31
52656;SHT85;35474;51.032;6.998;2023-09-18T06:27:37;20.51;82.40
52656;SHT85;35474;51.032;6.998;2023-09-18T06:32:34;20.55;82.09
52656;SHT85;35474;51.032;6.998;2023-09-18T06:35:03;20.61;81.76
52656;SHT85;35474;51.032;6.998;2023-09-18T06:37:31;20.62;81.55
52656;SHT85;35474;51.032;6.998;2023-09-18T06:39:57;20.69;81.39
52656;SHT85;35474;51.032;6.998;2023-09-18T06:42:24;20.68;81.53
52656;SHT85;35474;51.032;6.998;2023-09-18T06:44:51;20.73;81.17
52656;SHT85;35474;51.032;6.998;2023-09-18T06:47:19;20.73;80.88
52656;SHT85;35474;51.032;6.998;2023-09-18T06:49:45;20.79;80.54
52656;SHT85;35474;51.032;6.998;2023-09-18T06:52:13;20.83;80.21
52656;SHT85;35474;51.032;6.998;2023-09-18T06:54:40;20.90;79.89
52656;SHT85;35474;51.032;6.998;2023-09-18T06:57:07;20.96;79.43
52656;SHT85;35474;51.032;6.998;2023-09-18T06:59:33;21.00;79.15
52656;SHT85;35474;51.032;6.998;2023-09-18T07:02:01;21.04;78.95
52656;SHT85;35474;51.032;6.998;2023-09-18T07:04:28;21.10;78.66
52656;SHT85;35474;51.032;6.998;2023-09-18T07:06:55;21.09;78.63
52656;SHT85;35474;51.032;6.998;2023-09-18T07:09:22;21.13;78.66
52656;SHT85;35474;51.032;6.998;2023-09-18T07:11:51;21.14;78.38
52656;SHT85;35474;51.032;6.998;2023-09-18T07:14:18;21.17;78.47
52656;SHT85;35474;51.032;6.998;2023-09-18T07:16:45;21.20;78.44
52656;SHT85;35474;51.032;6.998;2023-09-18T07:19:11;21.27;78.46
52656;SHT85;35474;51.032;6.998;2023-09-18T07:21:43;21.40;77.96
52656;SHT85;35474;51.032;6.998;2023-09-18T07:24:10;21.38;77.87
52656;SHT85;35474;51.032;6.998;2023-09-18T07:26:43;21.37;78.10
52656;SHT85;35474;51.032;6.998;2023-09-18T07:29:13;21.45;77.76
52656;SHT85;35474;51.032;6.998;2023-09-18T07:31:44;21.44;77.74
52656;SHT85;35474;51.032;6.998;2023-09-18T07:34:10;21.44;77.44
52656;SHT85;35474;51.032;6.998;2023-09-18T07:36:39;21.35;77.31
52656;SHT85;35474;51.032;6.998;2023-09-18T07:39:06;21.41;77.48
52656;SHT85;35474;51.032;6.998;2023-09-18T07:41:33;21.40;77.44
52656;SHT85;35474;51.032;6.998;2023-09-18T07:44:00;21.37;77.23
52656;SHT85;35474;51.032;6.998;2023-09-18T07:46:26;21.41;76.91
52656;SHT85;35474;51.032;6.998;2023-09-18T07:48:53;21.48;76.63
52656;SHT85;35474;51.032;6.998;2023-09-18T07:51:20;21.51;76.81
52656;SHT85;35474;51.032;6.998;2023-09-18T07:53:47;21.48;76.95
52656;SHT85;35474;51.032;6.998;2023-09-18T07:56:14;21.48;76.77
52656;SHT85;35474;51.032;6.998;2023-09-18T07:58:41;21.50;76.59
52656;SHT85;35474;51.032;6.998;2023-09-18T08:01:07;21.48;76.19
52656;SHT85;35474;51.032;6.998;2023-09-18T08:03:36;21.50;76.10
52656;SHT85;35474;51.032;6.998;2023-09-18T08:06:03;21.60;75.59
52656;SHT85;35474;51.032;6.998;2023-09-18T08:08:30;21.55;75.32
52656;SHT85;35474;51.032;6.998;2023-09-18T08:11:00;21.54;75.19
52656;SHT85;35474;51.032;6.998;2023-09-18T08:13:35;21.60;75.06
52656;SHT85;35474;51.032;6.998;2023-09-18T08:16:02;21.62;74.73
52656;SHT85;35474;51.032;6.998;2023-09-18T08:18:30;21.67;74.52
52656;SHT85;35474;51.032;6.998;2023-09-18T08:20:57;21.65;74.53
52656;SHT85;35474;51.032;6.998;2023-09-18T08:23:24;21.67;74.37
52656;SHT85;35474;51.032;6.998;2023-09-18T08:25:51;21.61;74.06
52656;SHT85;35474;51.032;6.998;2023-09-18T08:28:21;21.67;74.06
52656;SHT85;35474;51.032;6.998;2023-09-18T08:30:48;21.71;73.90
52656;SHT85;35474;51.032;6.998;2023-09-18T08:33:14;21.67;73.90
52656;SHT85;35474;51.032;6.998;2023-09-18T08:35:41;21.71;73.71
52656;SHT85;35474;51.032;6.998;2023-09-18T08:38:08;21.75;73.75
52656;SHT85;35474;51.032;6.998;2023-09-18T08:40:35;21.77;73.37
52656;SHT85;35474;51.032;6.998;2023-09-18T08:43:01;21.69;73.19
52656;SHT85;35474;51.032;6.998;2023-09-18T08:45:31;21.81;73.03
52656;SHT85;35474;51.032;6.998;2023-09-18T08:48:14;21.69;73.12
52656;SHT85;35474;51.032;6.998;2023-09-18T08:50:42;21.77;73.07
52656;SHT85;35474;51.032;6.998;2023-09-18T08:53:10;21.85;73.02
52656;SHT85;35474;51.032;6.998;2023-09-18T08:55:38;21.93;72.81
52656;SHT85;35474;51.032;6.998;2023-09-18T08:58:06;21.85;72.86
52656;SHT85;35474;51.032;6.998;2023-09-18T09:00:37;21.88;72.64
52656;SHT85;35474;51.032;6.998;2023-09-18T09:03:04;22.18;72.31
52656;SHT85;35474;51.032;6.998;2023-09-18T09:05:32;22.23;71.62
52656;SHT85;35474;51.032;6.998;2023-09-18T09:07:59;22.22;71.58
52656;SHT85;35474;51.032;6.998;2023-09-18T09:10:26;22.19;71.96
52656;SHT85;35474;51.032;6.998;2023-09-18T09:12:54;22.03;71.89
52656;SHT85;35474;51.032;6.998;2023-09-18T09:15:25;22.08;72.20
52656;SHT85;35474;51.032;6.998;2023-09-18T09:18:03;21.99;72.16
52656;SHT85;35474;51.032;6.998;2023-09-18T09:20:33;22.12;71.98
52656;SHT85;35474;51.032;6.998;2023-09-18T09:23:00;21.93;71.37
52656;SHT85;35474;51.032;6.998;2023-09-18T09:25:29;22.13;71.81
52656;SHT85;35474;51.032;6.998;2023-09-18T09:28:02;22.09;71.51
52656;SHT85;35474;51.032;6.998;2023-09-18T09:30:31;22.03;71.26
52656;SHT85;35474;51.032;6.998;2023-09-18T09:32:59;22.02;71.32
52656;SHT85;35474;51.032;6.998;2023-09-18T09:35:30;22.09;71.27
52656;SHT85;35474;51.032;6.998;2023-09-18T09:38:01;22.09;70.72
52656;SHT85;35474;51.032;6.998;2023-09-18T09:40:35;22.22;71.05
52656;SHT85;35474;51.032;6.998;2023-09-18T09:43:04;22.50;70.07
52656;SHT85;35474;51.032;6.998;2023-09-18T09:45:34;22.16;70.42
52656;SHT85;35474;51.032;6.998;2023-09-18T09:48:03;22.35;70.37
52656;SHT85;35474;51.032;6.998;2023-09-18T09:50:33;22.30;70.12
52656;SHT85;35474;51.032;6.998;2023-09-18T09:53:12;22.41;70.24
52656;SHT85;35474;51.032;6.998;2023-09-18T09:55:40;22.44;69.89
52656;SHT85;35474;51.032;6.998;2023-09-18T09:58:07;22.59;69.89
52656;SHT85;35474;51.032;6.998;2023-09-18T10:00:39;22.47;69.22
52656;SHT85;35474;51.032;6.998;2023-09-18T10:03:10;22.46;69.56
52656;SHT85;35474;51.032;6.998;2023-09-18T10:05:40;22.56;69.24
52656;SHT85;35474;51.032;6.998;2023-09-18T10:08:18;22.67;69.06
52656;SHT85;35474;51.032;6.998;2023-09-18T10:10:50;22.80;68.30
52656;SHT85;35474;51.032;6.998;2023-09-18T10:13:19;23.14;67.95
52656;SHT85;35474;51.032;6.998;2023-09-18T10:15:51;23.62;66.06
52656;SHT85;35474;51.032;6.998;2023-09-18T10:20:56;24.18;65.39
52656;SHT85;35474;51.032;6.998;2023-09-18T10:26:24;24.49;63.53
52656;SHT85;35474;51.032;6.998;2023-09-18T10:28:55;24.10;64.39
52656;SHT85;35474;51.032;6.998;2023-09-18T10:31:26;24.37;63.67
52656;SHT85;35474;51.032;6.998;2023-09-18T10:33:53;24.42;62.70
52656;SHT85;35474;51.032;6.998;2023-09-18T10:36:23;24.65;62.57
52656;SHT85;35474;51.032;6.998;2023-09-18T10:38:52;24.21;62.70
52656;SHT85;35474;51.032;6.998;2023-09-18T10:41:20;24.49;62.22
52656;SHT85;35474;51.032;6.998;2023-09-18T10:43:47;24.45;62.53
52656;SHT85;35474;51.032;6.998;2023-09-18T10:46:16;24.78;60.89
52656;SHT85;35474;51.032;6.998;2023-09-18T10:48:42;24.23;62.25
52656;SHT85;35474;51.032;6.998;2023-09-18T10:51:10;24.76;60.95
52656;SHT85;35474;51.032;6.998;2023-09-18T10:53:37;24.62;61.50
52656;SHT85;35474;51.032;6.998;2023-09-18T10:56:04;24.41;61.42
52656;SHT85;35474;51.032;6.998;2023-09-18T10:58:31;25.03;60.76
52656;SHT85;35474;51.032;6.998;2023-09-18T11:01:02;25.19;59.75
52656;SHT85;35474;51.032;6.998;2023-09-18T11:03:32;24.81;61.36
52656;SHT85;35474;51.032;6.998;2023-09-18T11:06:04;25.08;59.54
52656;SHT85;35474;51.032;6.998;2023-09-18T11:08:36;25.08;59.28
52656;SHT85;35474;51.032;6.998;2023-09-18T11:11:10;25.47;58.34
52656;SHT85;35474;51.032;6.998;2023-09-18T11:13:43;25.55;58.49
52656;SHT85;35474;51.032;6.998;2023-09-18T11:19:04;25.81;57.67
52656;SHT85;35474;51.032;6.998;2023-09-18T11:21:37;25.92;56.72
52656;SHT85;35474;51.032;6.998;2023-09-18T11:24:08;25.78;57.17
52656;SHT85;35474;51.032;6.998;2023-09-18T11:26:47;25.75;56.48
52656;SHT85;35474;51.032;6.998;2023-09-18T11:29:16;25.50;57.63
52656;SHT85;35474;51.032;6.998;2023-09-18T11:31:49;25.70;56.63
52656;SHT85;35474;51.032;6.998;2023-09-18T11:34:24;25.77;55.08
52656;SHT85;35474;51.032;6.998;2023-09-18T11:36:53;25.97;55.64
52656;SHT85;35474;51.032;6.998;2023-09-18T11:42:10;26.21;53.95
52656;SHT85;35474;51.032;6.998;2023-09-18T11:44:39;25.71;55.07
52656;SHT85;35474;51.032;6.998;2023-09-18T11:47:14;25.41;55.86
52656;SHT85;35474;51.032;6.998;2023-09-18T11:49:50;24.86;57.02
52656;SHT85;35474;51.032;6.998;2023-09-18T11:52:22;25.26;56.19
52656;SHT85;35474;51.032;6.998;2023-09-18T11:54:51;25.12;56.51
52656;SHT85;35474;51.032;6.998;2023-09-18T11:57:20;26.24;54.49
52656;SHT85;35474;51.032;6.998;2023-09-18T11:59:47;26.60;54.48
52656;SHT85;35474;51.032;6.998;2023-09-18T12:02:24;25.57;54.66
52656;SHT85;35474;51.032;6.998;2023-09-18T12:05:09;25.18;56.64
52656;SHT85;35474;51.032;6.998;2023-09-18T12:07:37;26.26;54.40
52656;SHT85;35474;51.032;6.998;2023-09-18T12:10:05;27.05;52.52
52656;SHT85;35474;51.032;6.998;2023-09-18T12:12:35;26.37;53.25
52656;SHT85;35474;51.032;6.998;2023-09-18T12:15:02;25.89;54.28
52656;SHT85;35474;51.032;6.998;2023-09-18T12:17:29;25.71;54.88
52656;SHT85;35474;51.032;6.998;2023-09-18T12:19:56;26.33;53.59
52656;SHT85;35474;51.032;6.998;2023-09-18T12:22:26;26.42;52.32
52656;SHT85;35474;51.032;6.998;2023-09-18T12:25:07;26.55;52.51
52656;SHT85;35474;51.032;6.998;2023-09-18T12:27:40;26.19;50.88
52656;SHT85;35474;51.032;6.998;2023-09-18T12:30:07;26.36;50.27
52656;SHT85;35474;51.032;6.998;2023-09-18T12:32:38;26.36;50.79
52656;SHT85;35474;51.032;6.998;2023-09-18T12:35:06;26.53;51.05
52656;SHT85;35474;51.032;6.998;2023-09-18T12:37:34;26.47;51.10
52656;SHT85;35474;51.032;6.998;2023-09-18T12:40:01;26.83;50.78
52656;SHT85;35474;51.032;6.998;2023-09-18T12:42:27;26.84;50.16
52656;SHT85;35474;51.032;6.998;2023-09-18T12:44:54;27.05;50.31
52656;SHT85;35474;51.032;6.998;2023-09-18T12:47:21;27.55;49.46
52656;SHT85;35474;51.032;6.998;2023-09-18T12:49:48;27.75;48.24
52656;SHT85;35474;51.032;6.998;2023-09-18T12:52:21;26.84;49.78
52656;SHT85;35474;51.032;6.998;2023-09-18T12:54:49;26.32;50.74
52656;SHT85;35474;51.032;6.998;2023-09-18T12:57:20;25.61;53.08
52656;SHT85;35474;51.032;6.998;2023-09-18T12:59:47;26.08;51.71
52656;SHT85;35474;51.032;6.998;2023-09-18T13:02:17;26.28;51.26
52656;SHT85;35474;51.032;6.998;2023-09-18T13:04:54;26.35;51.08
52656;SHT85;35474;51.032;6.998;2023-09-18T13:07:22;26.31;49.34
52656;SHT85;35474;51.032;6.998;2023-09-18T13:10:00;26.73;48.80
52656;SHT85;35474;51.032;6.998;2023-09-18T13:15:30;26.77;47.79
52656;SHT85;35474;51.032;6.998;2023-09-18T13:17:58;27.24;46.50
52656;SHT85;35474;51.032;6.998;2023-09-18T13:20:35;26.37;47.67
52656;SHT85;35474;51.032;6.998;2023-09-18T13:23:02;27.75;45.58
52656;SHT85;35474;51.032;6.998;2023-09-18T13:25:33;26.94;46.46
52656;SHT85;35474;51.032;6.998;2023-09-18T13:28:01;27.24;45.79
52656;SHT85;35474;51.032;6.998;2023-09-18T13:30:30;26.59;46.97
52656;SHT85;35474;51.032;6.998;2023-09-18T13:33:01;26.79;47.21
52656;SHT85;35474;51.032;6.998;2023-09-18T13:35:33;27.10;45.34
52656;SHT85;35474;51.032;6.998;2023-09-18T13:38:01;26.40;46.78
52656;SHT85;35474;51.032;6.998;2023-09-18T13:40:32;26.33;47.34
52656;SHT85;35474;51.032;6.998;2023-09-18T13:43:05;26.93;45.83
52656;SHT85;35474;51.032;6.998;2023-09-18T13:45:33;26.62;47.18
52656;SHT85;35474;51.032;6.998;2023-09-18T13:48:03;26.86;46.85
52656;SHT85;35474;51.032;6.998;2023-09-18T13:50:31;26.60;46.84
52656;SHT85;35474;51.032;6.998;2023-09-18T13:52:59;26.47;48.32
52656;SHT85;35474;51.032;6.998;2023-09-18T13:55:29;26.73;47.61
52656;SHT85;35474;51.032;6.998;2023-09-18T13:57:56;26.84;47.49
52656;SHT85;35474;51.032;6.998;2023-09-18T14:00:23;27.04;46.90
52656;SHT85;35474;51.032;6.998;2023-09-18T14:02:52;26.90;47.43
52656;SHT85;35474;51.032;6.998;2023-09-18T14:05:18;26.56;47.78
52656;SHT85;35474;51.032;6.998;2023-09-18T14:07:46;27.11;45.43
52656;SHT85;35474;51.032;6.998;2023-09-18T14:10:14;26.83;46.56
52656;SHT85;35474;51.032;6.998;2023-09-18T14:12:41;26.29;47.98
52656;SHT85;35474;51.032;6.998;2023-09-18T14:15:09;26.43;47.39
52656;SHT85;35474;51.032;6.998;2023-09-18T14:17:37;26.24;48.33
52656;SHT85;35474;51.032;6.998;2023-09-18T14:20:04;26.24;47.78
52656;SHT85;35474;51.032;6.998;2023-09-18T14:22:35;26.53;46.29
52656;SHT85;35474;51.032;6.998;2023-09-18T14:25:02;26.65;45.98
52656;SHT85;35474;51.032;6.998;2023-09-18T14:27:33;27.04;45.37
52656;SHT85;35474;51.032;6.998;2023-09-18T14:30:01;26.57;46.15
52656;SHT85;35474;51.032;6.998;2023-09-18T14:32:33;26.18;46.72
52656;SHT85;35474;51.032;6.998;2023-09-18T14:35:00;26.32;46.19
52656;SHT85;35474;51.032;6.998;2023-09-18T14:37:28;26.29;46.20
52656;SHT85;35474;51.032;6.998;2023-09-18T14:39:55;26.60;45.65
52656;SHT85;35474;51.032;6.998;2023-09-18T14:42:22;26.57;44.93
52656;SHT85;35474;51.032;6.998;2023-09-18T14:44:48;26.97;45.93
52656;SHT85;35474;51.032;6.998;2023-09-18T14:47:15;27.17;45.12
52656;SHT85;35474;51.032;6.998;2023-09-18T14:49:48;26.63;45.54
52656;SHT85;35474;51.032;6.998;2023-09-18T14:52:15;26.55;45.54
52656;SHT85;35474;51.032;6.998;2023-09-18T14:54:46;26.60;45.93
52656;SHT85;35474;51.032;6.998;2023-09-18T14:57:13;27.11;45.42
52656;SHT85;35474;51.032;6.998;2023-09-18T14:59:40;26.94;45.62
52656;SHT85;35474;51.032;6.998;2023-09-18T15:02:09;27.25;45.21
52656;SHT85;35474;51.032;6.998;2023-09-18T15:04:35;26.97;45.30
52656;SHT85;35474;51.032;6.998;2023-09-18T15:07:03;26.56;46.58
52656;SHT85;35474;51.032;6.998;2023-09-18T15:09:29;26.76;46.37
52656;SHT85;35474;51.032;6.998;2023-09-18T15:11:56;26.52;47.59
52656;SHT85;35474;51.032;6.998;2023-09-18T15:14:29;26.73;46.63
52656;SHT85;35474;51.032;6.998;2023-09-18T15:16:55;26.74;46.42
52656;SHT85;35474;51.032;6.998;2023-09-18T15:19:22;27.04;46.32
52656;SHT85;35474;51.032;6.998;2023-09-18T15:21:49;26.69;46.12
52656;SHT85;35474;51.032;6.998;2023-09-18T15:24:23;26.63;46.64
52656;SHT85;35474;51.032;6.998;2023-09-18T15:26:53;26.67;46.40
52656;SHT85;35474;51.032;6.998;2023-09-18T15:29:20;26.77;46.45
52656;SHT85;35474;51.032;6.998;2023-09-18T15:31:48;26.40;46.21
52656;SHT85;35474;51.032;6.998;2023-09-18T15:34:20;26.49;46.20
52656;SHT85;35474;51.032;6.998;2023-09-18T15:36:47;25.95;47.11
52656;SHT85;35474;51.032;6.998;2023-09-18T15:39:20;26.18;46.84
52656;SHT85;35474;51.032;6.998;2023-09-18T15:41:48;26.15;46.98
52656;SHT85;35474;51.032;6.998;2023-09-18T15:44:14;26.21;47.12
52656;SHT85;35474;51.032;6.998;2023-09-18T15:46:41;26.33;46.41
52656;SHT85;35474;51.032;6.998;2023-09-18T15:49:11;25.97;47.22
52656;SHT85;35474;51.032;6.998;2023-09-18T15:51:37;25.77;47.52
52656;SHT85;35474;51.032;6.998;2023-09-18T15:54:04;25.31;48.75
52656;SHT85;35474;51.032;6.998;2023-09-18T15:56:33;25.16;48.74